Flight Track Log - Related Links

Times and Time Zones

All times are in EDT time to prevent confusion due to time zone crossing. See the SWA2236 flight status page for this flight to view local times or setup timezone preferences in your user account.

Time Position Orientation Groundspeed Altitude Reporting Facility
EDT Latitude Longitude Course Direction KTS MPH feet Rate Location/Type
Mon 07:08:07 AM 32.8333 -96.8333 157° South 145 167 1,500  Level Dallas / Fort Worth TRACON
Mon 07:08:50 AM 32.8000 -96.8167 157° South 201 231 2,500 1,688 Climbing Dallas / Fort Worth TRACON
Mon 07:09:43 AM 32.7500 -96.8167 180° South 236 272 4,200 2,230 Climbing Dallas / Fort Worth TRACON
Mon 07:10:43 AM 32.6833 -96.8667 212° Southwest 282 325 6,700 2,727 Climbing Dallas / Fort Worth TRACON
Mon 07:12:17 AM 32.7158 -96.9961 287° West 310 357 11,200 2,688 Climbing Fort Worth Center
Mon 07:13:17 AM 32.7517 -97.1144 290° West 334 384 13,600 2,400 Climbing Fort Worth Center
Mon 07:14:17 AM 32.7853 -97.2158 292° West 360 414 16,000 2,500 Climbing Fort Worth Center
Mon 07:15:17 AM 32.8272 -97.3442 291° West 381 438 18,600 2,400 Climbing Fort Worth Center
Mon 07:16:17 AM 32.8647 -97.4531 292° West 391 450 20,800 2,100 Climbing Fort Worth Center
Mon 07:17:17 AM 32.9064 -97.5867 290° West 398 458 22,800 1,850 Climbing Fort Worth Center
Mon 07:18:17 AM 32.9500 -97.7156 292° West 419 482 24,500 1,800 Climbing Fort Worth Center
Mon 07:19:17 AM 32.9953 -97.8519 292° West 433 498 26,400 1,850 Climbing Fort Worth Center
Mon 07:20:17 AM 33.0386 -97.9908 290° West 447 514 28,200 1,650 Climbing Fort Worth Center
Mon 07:21:17 AM 33.0858 -98.1300 292° West 452 520 29,700 1,600 Climbing Fort Worth Center
Mon 07:22:17 AM 33.1331 -98.2742 291° West 457 526 31,400 1,650 Climbing Fort Worth Center
Mon 07:23:17 AM 33.1800 -98.4186 291° West 457 526 33,000 1,400 Climbing Fort Worth Center
Mon 07:24:17 AM 33.2247 -98.5583 291° West 462 532 34,200 1,400 Climbing Fort Worth Center
Mon 07:25:17 AM 33.2692 -98.7028 290° West 457 526 35,800 1,650 Climbing Fort Worth Center
Mon 07:26:17 AM 33.3136 -98.8453 291° West 457 526 37,500 1,100 Climbing Fort Worth Center
Mon 07:27:17 AM 33.3578 -98.9853 291° West 457 526 38,000 250 Climbing Fort Worth Center
Mon 07:28:17 AM 33.4039 -99.1278 291° West 457 526 38,000  Level Fort Worth Center
Mon 07:29:17 AM 33.4500 -99.2706 291° West 451 519 38,000  Level Fort Worth Center
Mon 07:30:17 AM 33.4936 -99.4136 290° West 451 519 38,000  Level Fort Worth Center
Mon 07:31:17 AM 33.5372 -99.5592 290° West 451 519 38,000  Level Fort Worth Center
Mon 07:32:17 AM 33.5806 -99.7022 290° West 451 519 38,000  Level Fort Worth Center
Mon 07:33:17 AM 33.6258 -99.8456 291° West 451 519 38,000  Level Fort Worth Center
Mon 07:34:17 AM 33.6689 -99.9892 290° West 451 519 38,000  Level Fort Worth Center
Mon 07:35:17 AM 33.7139 -100.1328 291° West 451 519 38,000  Level Fort Worth Center
Mon 07:36:17 AM 33.7586 -100.2767 291° West 457 526 38,000  Level Fort Worth Center
Mon 07:37:17 AM 33.7992 -100.4228 289° West 457 526 38,000  Level Fort Worth Center
Mon 07:38:17 AM 33.8494 -100.5822 291° West 464 534 38,000  Level Fort Worth Center
Mon 07:39:17 AM 33.8878 -100.7086 290° West 464 534 38,000  Level Fort Worth Center
Mon 07:40:17 AM 33.9336 -100.8681 289° West 464 534 38,000  Level Fort Worth Center
Mon 07:41:17 AM 33.9756 -101.0100 290° West 464 534 38,000  Level Fort Worth Center
Mon 07:42:17 AM 34.0136 -101.1369 290° West 453 521 38,000  Level Fort Worth Center
Mon 07:43:17 AM 34.0569 -101.2917 289° West 446 513 38,000  Level Fort Worth Center
Mon 07:44:17 AM 34.0944 -101.4186 290° West 446 513 38,000  Level Fort Worth Center
Mon 07:45:17 AM 34.1394 -101.5739 289° West 451 519 38,000  Level Fort Worth Center
Mon 07:46:17 AM 34.1769 -101.7011 290° West 451 519 38,000  Level Fort Worth Center
Mon 07:47:17 AM 34.2158 -101.8436 288° West 451 519 38,000  Level Fort Worth Center
Mon 07:48:06 AM 34.2456 -101.9469 289° West 446 513 38,000  Level Albuquerque Center
Mon 07:49:06 AM 34.2858 -102.0889 289° West 446 513 38,000  Level Albuquerque Center
Mon 07:50:06 AM 34.3261 -102.2311 289° West 446 513 38,000  Level Albuquerque Center
Mon 07:51:07 AM 34.3664 -102.3750 289° West 448 516 38,000  Level Albuquerque Center
Mon 07:52:07 AM 34.4061 -102.5178 289° West 448 516 38,000  Level Albuquerque Center
Mon 07:53:07 AM 34.4469 -102.6639 289° West 453 521 38,000  Level Albuquerque Center
Mon 07:54:07 AM 34.4947 -102.8344 289° West 451 519 38,000  Level Albuquerque Center
Mon 07:55:08 AM 34.5089 -102.9597 278° West 448 516 38,000  Level Albuquerque Center
Mon 07:56:08 AM 34.5286 -103.1097 279° West 448 516 38,000  Level Albuquerque Center
Mon 07:57:08 AM 34.5453 -103.2586 278° West 444 511 38,000  Level Albuquerque Center
Mon 07:58:09 AM 34.5639 -103.4083 279° West 444 511 38,000  Level Albuquerque Center
Mon 07:59:09 AM 34.5814 -103.5564 278° West 440 506 38,000  Level Albuquerque Center
Mon 08:00:10 AM 34.6125 -103.7014 285° West 439 505 38,000  Level Albuquerque Center
Mon 08:01:10 AM 34.6483 -103.8456 287° West 440 506 38,000  Level Albuquerque Center
Mon 08:02:10 AM 34.6831 -103.9903 286° West 440 506 38,000  Level Albuquerque Center
Mon 08:03:11 AM 34.7186 -104.1342 287° West 440 506 38,000  Level Albuquerque Center
Mon 08:04:11 AM 34.7528 -104.2778 286° West 438 504 38,000  Level Albuquerque Center
Mon 08:05:12 AM 34.7878 -104.4203 287° West 435 501 38,000 -595 Level Albuquerque Center
Mon 08:06:12 AM 34.8214 -104.5631 286° West 433 498 36,800 -1,800 Descending Albuquerque Center
Mon 08:07:12 AM 34.8439 -104.7053 281° West 428 493 34,400 -2,182 Descending Albuquerque Center
Mon 08:08:13 AM 34.8564 -104.8489 276° West 424 488 32,400 -1,983 Descending Albuquerque Center
Mon 08:09:13 AM 34.8692 -104.9919 276° West 420 483 30,400 -1,934 Descending Albuquerque Center
Mon 08:10:14 AM 34.8856 -105.1311 278° West 414 476 28,500 -1,884 Descending Albuquerque Center
Mon 08:11:14 AM 34.9189 -105.2597 288° West 401 461 26,600 -1,835 Descending Albuquerque Center
Mon 08:12:15 AM 34.9461 -105.3886 284° West 392 451 24,800 -1,587 Descending Albuquerque Center
Mon 08:13:15 AM 34.9681 -105.5144 282° West 381 438 23,400 -1,140 Descending Albuquerque Center
Mon 08:14:16 AM 34.9747 -105.6433 274° West 380 437 22,500 -1,320 Descending Albuquerque Center
Mon 08:14:55 AM 34.9781 -105.7350 273° West 377 434 21,200 -1,680 Descending Albuquerque Center
Mon 08:15:56 AM 34.9858 -105.8600 274° West 375 432 19,700 -1,219 Descending Albuquerque Center
Mon 08:17:03 AM 34.9928 -105.9931 274° West 363 418 18,600 -1,181 Descending Albuquerque Center
Mon 08:18:03 AM 35.0014 -106.1128 275° West 360 414 17,200 -1,565 Descending Albuquerque Center
Mon 08:18:58 AM 35.0039 -106.2211 272° West 352 405 15,600 -1,983 Descending Albuquerque Center
Mon 08:19:58 AM 34.9581 -106.3242 242° Southwest 347 399 13,400 -1,409 Descending Albuquerque Center
Mon 08:20:53 AM 34.9142 -106.4133 239° Southwest 317 365 12,900 -492 Descending Albuquerque Center
Mon 08:22:00 AM 34.8711 -106.4969 238° Southwest 252 290 12,400 -709 Descending Albuquerque Center
Mon 08:23:00 AM 34.8578 -106.5781 259° West 209 241 11,400 -1,240 Descending Albuquerque Center
Mon 08:24:01 AM 34.8789 -106.6375 293° West 183 211 9,900 -1,587 Descending Albuquerque Center
Mon 08:25:01 AM 34.9150 -106.6747 320° Northwest 164 189 8,200 -1,537 Descending Albuquerque Center
Mon 08:26:02 AM 34.9594 -106.6969 338° Northwest 163 188 6,800 -1,033 Descending Albuquerque Center
Mon 08:27:03 AM 34.9908 -106.6681 37° Northeast 147 169 6,100 -638 Descending Albuquerque Center
Mon 08:28:23 AM 35.0306 -106.6183 46° Northeast 154 177 5,300 -600 Descending Albuquerque Center
Mon 08:30:00 AM 35.0333 -106.6000 90° East  Level FlightAware Approximate

Login

Don't have an account? Register now (free) for customized features, flight alerts, and more!